createdAt,value
2018-12-27T00:00:42.889Z,32.00
2018-12-27T00:03:12.433Z,31.33
2018-12-27T00:05:41.939Z,31.50
2018-12-27T00:08:11.420Z,30.53
2018-12-27T00:10:40.974Z,30.13
2018-12-27T00:13:10.588Z,29.03
2018-12-27T00:15:40.125Z,30.10
2018-12-27T00:18:10.164Z,32.30
2018-12-27T00:20:39.700Z,30.70
2018-12-27T00:23:09.273Z,29.07
2018-12-27T00:25:39.432Z,31.73
2018-12-27T00:28:08.967Z,29.27
2018-12-27T00:30:39.218Z,28.40
2018-12-27T00:33:09.179Z,29.57
2018-12-27T00:35:40.218Z,30.67
2018-12-27T00:38:10.115Z,28.10
2018-12-27T00:40:40.047Z,29.83
2018-12-27T00:43:09.854Z,28.90
2018-12-27T00:45:39.717Z,28.77
2018-12-27T00:48:09.577Z,30.60
2018-12-27T00:50:40.461Z,28.50
2018-12-27T00:53:10.295Z,28.10
2018-12-27T00:55:40.138Z,28.23
2018-12-27T00:58:10.004Z,27.53
2018-12-27T01:00:39.824Z,27.57
2018-12-27T01:03:11.295Z,28.17
2018-12-27T01:05:41.543Z,27.40
2018-12-27T01:08:11.417Z,27.57
2018-12-27T01:10:44.073Z,26.47
2018-12-27T01:13:13.910Z,26.20
2018-12-27T01:15:43.724Z,26.83
2018-12-27T01:18:13.740Z,28.00
2018-12-27T01:20:43.584Z,24.77
2018-12-27T01:23:13.463Z,26.37
2018-12-27T01:25:43.441Z,24.90
2018-12-27T01:28:13.367Z,26.60
2018-12-27T01:30:43.215Z,26.70
2018-12-27T01:33:18.745Z,25.37
2018-12-27T01:35:44.625Z,25.60
2018-12-27T01:38:14.467Z,22.03
2018-12-27T01:40:44.444Z,23.13
2018-12-27T01:43:14.319Z,21.27
2018-12-27T01:45:44.150Z,20.33
2018-12-27T01:48:14.048Z,23.40
2018-12-27T01:50:43.939Z,22.63
2018-12-27T01:53:13.802Z,21.30
2018-12-27T01:55:43.707Z,21.90
2018-12-27T01:58:13.552Z,22.43
2018-12-27T02:00:43.353Z,22.83
2018-12-27T02:03:13.376Z,24.50
2018-12-27T02:05:43.276Z,22.40
2018-12-27T02:08:13.099Z,24.53
2018-12-27T02:10:42.969Z,22.93
2018-12-27T02:13:12.836Z,23.10
2018-12-27T02:15:42.676Z,22.10
2018-12-27T02:18:12.629Z,22.07
2018-12-27T02:20:42.475Z,21.77
2018-12-27T02:23:12.356Z,19.97
2018-12-27T02:25:42.695Z,20.47
2018-12-27T02:28:12.562Z,20.87
2018-12-27T02:30:42.407Z,21.10
2018-12-27T02:33:12.258Z,20.43
2018-12-27T02:35:42.113Z,21.80
2018-12-27T02:38:11.935Z,20.97
2018-12-27T02:40:41.847Z,21.20
2018-12-27T02:43:11.680Z,22.20
2018-12-27T02:45:41.512Z,21.57
2018-12-27T02:48:11.857Z,22.60
2018-12-27T02:50:41.689Z,23.10
2018-12-27T02:53:11.480Z,23.10
2018-12-27T02:55:41.328Z,24.40
2018-12-27T02:58:11.199Z,23.55
2018-12-27T03:00:40.993Z,25.37
2018-12-27T03:03:10.908Z,24.15
2018-12-27T03:05:40.734Z,23.83
2018-12-27T03:08:10.566Z,24.32
2018-12-27T03:10:40.714Z,23.33
2018-12-27T03:13:10.578Z,23.23
2018-12-27T03:15:40.916Z,24.07
2018-12-27T03:18:10.768Z,24.43
2018-12-27T03:20:41.114Z,23.83
2018-12-27T03:23:10.939Z,24.47
2018-12-27T03:25:40.803Z,22.82
2018-12-27T03:28:10.632Z,25.35
2018-12-27T03:30:40.469Z,23.60
2018-12-27T03:33:10.441Z,24.83
2018-12-27T03:35:40.282Z,26.60
2018-12-27T03:38:10.110Z,24.27
2018-12-27T03:40:39.969Z,25.32
2018-12-27T03:43:09.799Z,25.32
2018-12-27T03:45:39.655Z,25.90
2018-12-27T03:48:09.539Z,24.12
2018-12-27T03:50:39.703Z,23.27
2018-12-27T03:53:09.536Z,24.27
2018-12-27T03:55:39.458Z,24.40
2018-12-27T03:58:09.267Z,25.27
2018-12-27T04:00:39.583Z,21.85
2018-12-27T04:03:09.465Z,23.17
2018-12-27T04:05:39.273Z,22.43
2018-12-27T04:08:09.107Z,22.90
2018-12-27T04:10:38.965Z,23.67
2018-12-27T04:13:08.808Z,23.47
2018-12-27T04:15:38.319Z,23.97
2018-12-27T04:18:08.023Z,23.12
2018-12-27T04:20:37.529Z,24.57
2018-12-27T04:23:06.994Z,23.23
2018-12-27T04:25:36.614Z,23.40
2018-12-27T04:28:06.128Z,22.70
2018-12-27T04:30:35.780Z,23.15
2018-12-27T04:33:10.267Z,23.10
2018-12-27T04:35:39.853Z,22.63
2018-12-27T04:38:09.361Z,23.13
2018-12-27T04:40:39.365Z,23.35
2018-12-27T04:43:08.936Z,22.50
2018-12-27T04:45:38.442Z,22.65
2018-12-27T04:48:07.978Z,22.40
2018-12-27T04:50:37.495Z,22.75
2018-12-27T04:53:07.058Z,24.10
2018-12-27T04:55:36.789Z,22.15
2018-12-27T04:58:06.294Z,21.87
2018-12-27T05:00:35.796Z,21.47
2018-12-27T05:03:05.340Z,21.60
2018-12-27T05:05:34.937Z,22.02
2018-12-27T05:08:04.873Z,23.25
2018-12-27T05:10:34.389Z,22.93
2018-12-27T05:13:03.881Z,24.27
2018-12-27T05:15:33.397Z,23.55
2018-12-27T05:18:03.695Z,23.75
2018-12-27T05:20:33.207Z,23.83
2018-12-27T05:23:02.692Z,23.73
2018-12-27T05:25:32.237Z,24.00
2018-12-27T05:28:01.816Z,23.35
2018-12-27T05:30:31.346Z,23.18
2018-12-27T05:33:00.836Z,23.90
2018-12-27T05:35:30.434Z,24.27
2018-12-27T05:37:59.932Z,24.92
2018-12-27T05:40:29.534Z,26.90
2018-12-27T05:42:59.052Z,26.05
2018-12-27T05:45:28.552Z,25.88
2018-12-27T05:47:58.065Z,26.20
2018-12-27T05:50:27.562Z,26.02
2018-12-27T05:52:57.076Z,27.07
2018-12-27T05:55:34.054Z,27.93
2018-12-27T05:57:57.854Z,28.05
2018-12-27T06:00:27.352Z,26.60
2018-12-27T06:02:56.936Z,27.43
2018-12-27T06:05:26.446Z,28.60
2018-12-27T06:07:55.940Z,28.17
2018-12-27T06:10:25.461Z,28.55
2018-12-27T06:12:54.979Z,28.52
2018-12-27T06:15:24.461Z,28.57
2018-12-27T06:17:53.989Z,28.53
2018-12-27T06:20:23.522Z,28.10
2018-12-27T06:22:53.001Z,27.53
2018-12-27T06:25:22.866Z,28.35
2018-12-27T06:27:52.434Z,29.97
2018-12-27T06:30:21.898Z,27.37
2018-12-27T06:32:51.423Z,27.70
2018-12-27T06:35:21.383Z,28.75
2018-12-27T06:37:50.976Z,27.42
2018-12-27T06:40:20.559Z,27.83
2018-12-27T06:42:50.075Z,27.95
2018-12-27T06:45:19.585Z,29.50
2018-12-27T06:47:49.450Z,28.85
2018-12-27T06:50:18.904Z,28.50
2018-12-27T06:52:48.421Z,28.85
2018-12-27T06:55:17.927Z,29.60
2018-12-27T06:57:47.416Z,30.50
2018-12-27T07:00:16.926Z,28.73
2018-12-27T07:02:46.447Z,29.85
2018-12-27T07:05:15.935Z,29.33
2018-12-27T07:07:45.427Z,30.97
2018-12-27T07:10:15.264Z,30.20
2018-12-27T07:12:44.754Z,28.40
2018-12-27T07:15:14.405Z,30.60
2018-12-27T07:17:43.927Z,31.10
2018-12-27T07:20:13.472Z,28.97
2018-12-27T07:22:42.970Z,29.60
2018-12-27T07:25:12.501Z,29.77
2018-12-27T07:27:42.020Z,29.10
2018-12-27T07:30:11.526Z,29.73
2018-12-27T07:32:41.231Z,29.23
2018-12-27T07:35:10.755Z,27.73
2018-12-27T07:37:40.281Z,27.85
2018-12-27T07:40:09.826Z,26.93
2018-12-27T07:42:39.326Z,28.03
2018-12-27T07:45:08.847Z,27.27
2018-12-27T07:47:38.400Z,29.30
2018-12-27T07:50:08.386Z,30.13
2018-12-27T07:52:37.887Z,31.90
2018-12-27T07:55:07.705Z,29.30
2018-12-27T07:57:37.224Z,30.10
2018-12-27T08:00:07.350Z,29.42
2018-12-27T08:02:36.888Z,28.15
2018-12-27T08:05:06.459Z,30.45
2018-12-27T08:07:35.952Z,31.50
2018-12-27T08:10:07.139Z,28.80
2018-12-27T08:12:36.638Z,30.37
2018-12-27T08:15:07.772Z,31.30
2018-12-27T08:17:37.507Z,31.17
2018-12-27T08:20:08.458Z,32.20
2018-12-27T08:22:37.965Z,32.98
2018-12-27T08:25:07.578Z,32.40
2018-12-27T08:27:37.067Z,31.37
2018-12-27T08:30:09.204Z,32.45
2018-12-27T08:32:39.388Z,31.02
2018-12-27T08:35:11.643Z,32.90
2018-12-27T08:37:40.132Z,29.57
2018-12-27T08:40:09.702Z,30.57
2018-12-27T08:42:39.238Z,31.55
2018-12-27T08:45:08.951Z,32.80
2018-12-27T08:47:38.516Z,33.90
2018-12-27T08:50:08.842Z,32.85
2018-12-27T08:52:38.358Z,31.97
2018-12-27T08:55:08.407Z,32.37
2018-12-27T08:57:37.910Z,32.35
2018-12-27T09:00:08.945Z,31.07
2018-12-27T09:02:38.505Z,30.23
2018-12-27T09:05:08.182Z,31.95
2018-12-27T09:07:37.719Z,29.85
2018-12-27T09:10:08.906Z,30.37
2018-12-27T09:12:38.412Z,33.13
2018-12-27T09:15:07.943Z,31.70
2018-12-27T09:17:37.478Z,31.87
2018-12-27T09:20:09.765Z,30.83
2018-12-27T09:22:39.783Z,31.80
2018-12-27T09:25:09.816Z,31.20
2018-12-27T09:27:39.410Z,30.80
2018-12-27T09:30:09.318Z,29.80
2018-12-27T09:32:38.838Z,30.53
2018-12-27T09:35:08.337Z,30.90
2018-12-27T09:37:37.934Z,31.43
2018-12-27T09:40:08.530Z,30.48
2018-12-27T09:42:38.059Z,31.03
2018-12-27T09:45:09.018Z,32.27
2018-12-27T09:47:38.591Z,32.57
2018-12-27T09:50:08.441Z,32.87
2018-12-27T09:52:37.985Z,31.70
2018-12-27T09:55:07.594Z,31.70
2018-12-27T09:57:37.162Z,30.80
2018-12-27T10:00:08.820Z,30.93
2018-12-27T10:02:38.377Z,31.57
2018-12-27T10:05:07.952Z,29.70
2018-12-27T10:07:37.472Z,30.23
2018-12-27T10:10:08.048Z,29.50
2018-12-27T10:12:37.614Z,31.37
2018-12-27T10:15:09.403Z,29.07
2018-12-27T10:17:39.013Z,30.13
2018-12-27T10:20:08.757Z,29.40
2018-12-27T10:22:38.384Z,30.03
2018-12-27T10:25:08.302Z,29.00
2018-12-27T10:27:37.838Z,30.10
2018-12-27T10:30:09.040Z,30.70
2018-12-27T10:32:39.010Z,29.70
2018-12-27T10:35:09.205Z,29.37
2018-12-27T10:37:38.685Z,29.00
2018-12-27T10:40:13.484Z,28.77
2018-12-27T10:42:43.054Z,30.53
2018-12-27T10:45:13.069Z,29.50
2018-12-27T10:47:42.931Z,26.93
2018-12-27T10:50:12.422Z,28.37
2018-12-27T10:52:41.995Z,27.07
2018-12-27T10:55:11.648Z,28.93
2018-12-27T10:57:41.216Z,28.07
2018-12-27T11:00:13.743Z,28.17
2018-12-27T11:02:43.324Z,28.27
2018-12-27T11:05:32.281Z,28.63
2018-12-27T11:08:02.453Z,28.30
2018-12-27T11:10:32.010Z,28.10
2018-12-27T11:13:01.582Z,27.73
2018-12-27T11:15:31.106Z,28.73
2018-12-27T11:18:00.716Z,29.77
2018-12-27T11:20:30.621Z,27.60
2018-12-27T11:23:00.231Z,28.53
2018-12-27T11:25:29.788Z,27.73
2018-12-27T11:27:59.414Z,28.90
2018-12-27T11:30:29.237Z,28.07
2018-12-27T11:32:58.803Z,30.13
2018-12-27T11:35:28.498Z,30.20
2018-12-27T11:37:58.375Z,28.63
2018-12-27T11:40:27.879Z,29.10
2018-12-27T11:42:57.897Z,29.50
2018-12-27T11:45:27.464Z,29.60
2018-12-27T11:47:57.008Z,31.30
2018-12-27T11:50:26.572Z,30.27
2018-12-27T11:52:56.277Z,29.93
2018-12-27T11:55:26.042Z,30.73
2018-12-27T11:57:55.578Z,29.10
2018-12-27T12:00:25.105Z,31.47
2018-12-27T12:02:54.613Z,30.17
2018-12-27T12:05:24.240Z,30.30
2018-12-27T12:07:53.801Z,30.23
2018-12-27T12:10:23.307Z,31.90
2018-12-27T12:12:52.929Z,31.20
2018-12-27T12:15:22.764Z,32.13
2018-12-27T12:17:52.287Z,29.80
2018-12-27T12:20:21.809Z,31.77
2018-12-27T12:22:51.397Z,29.53
2018-12-27T12:25:20.919Z,32.17
2018-12-27T12:27:50.450Z,31.20
2018-12-27T12:30:20.024Z,31.00
2018-12-27T12:32:49.534Z,29.97
2018-12-27T12:35:19.102Z,31.07
2018-12-27T12:37:49.917Z,30.67
2018-12-27T12:40:19.409Z,29.27
2018-12-27T12:42:48.973Z,29.00
2018-12-27T12:45:19.136Z,30.33
2018-12-27T12:47:48.661Z,31.40
2018-12-27T12:50:18.277Z,30.60
2018-12-27T12:52:54.143Z,29.40
2018-12-27T12:55:23.679Z,29.50
2018-12-27T12:57:53.159Z,30.17
2018-12-27T13:00:22.746Z,29.97
2018-12-27T13:02:52.596Z,31.33
2018-12-27T13:05:22.146Z,27.60
2018-12-27T13:07:51.699Z,28.80
2018-12-27T13:10:21.208Z,29.60
2018-12-27T13:12:50.705Z,26.27
2018-12-27T13:15:20.473Z,27.97
2018-12-27T13:17:50.066Z,29.17
2018-12-27T13:20:19.573Z,28.40
2018-12-27T13:22:49.106Z,30.43
2018-12-27T13:25:18.640Z,28.23
2018-12-27T13:27:48.143Z,27.30
2018-12-27T13:30:17.683Z,29.40
2018-12-27T13:32:47.646Z,27.03
2018-12-27T13:35:17.135Z,28.53
2018-12-27T13:37:46.776Z,28.80
2018-12-27T13:40:16.292Z,29.60
2018-12-27T13:42:45.817Z,30.40
2018-12-27T13:45:15.457Z,29.40
2018-12-27T13:47:44.947Z,28.30
2018-12-27T13:50:14.463Z,29.70
2018-12-27T13:52:44.065Z,28.27
2018-12-27T13:55:13.654Z,28.60
2018-12-27T13:57:43.179Z,28.77
2018-12-27T14:00:12.932Z,29.83
2018-12-27T14:02:48.175Z,30.07
2018-12-27T14:05:17.933Z,30.00
2018-12-27T14:07:47.506Z,30.60
2018-12-27T14:10:17.038Z,28.87
2018-12-27T14:12:46.598Z,30.67
2018-12-27T14:15:16.279Z,30.10
2018-12-27T14:17:46.091Z,30.60
2018-12-27T14:20:15.718Z,29.43
2018-12-27T14:22:45.486Z,30.47
2018-12-27T14:25:17.163Z,29.73
2018-12-27T14:27:46.655Z,28.47
2018-12-27T14:30:16.319Z,28.37
2018-12-27T14:32:45.802Z,27.67
2018-12-27T14:35:15.320Z,28.80
2018-12-27T14:37:44.920Z,29.47
2018-12-27T14:40:14.529Z,29.30
2018-12-27T14:42:44.062Z,29.63
2018-12-27T14:45:13.588Z,29.30
2018-12-27T14:47:43.261Z,28.03
2018-12-27T14:50:12.781Z,28.20
2018-12-27T14:52:42.353Z,29.23
2018-12-27T14:55:11.870Z,27.27
2018-12-27T14:57:41.377Z,26.13
2018-12-27T15:00:12.550Z,27.10
2018-12-27T15:02:42.127Z,30.10
2018-12-27T15:05:11.657Z,27.00
2018-12-27T15:07:41.219Z,28.63
2018-12-27T15:10:11.075Z,29.90
2018-12-27T15:12:40.627Z,27.97
2018-12-27T15:15:10.173Z,27.80
2018-12-27T15:17:39.724Z,29.30
2018-12-27T15:20:09.340Z,28.40
2018-12-27T15:22:38.939Z,28.30
2018-12-27T15:25:08.447Z,27.80
2018-12-27T15:27:38.410Z,27.20
2018-12-27T15:30:08.116Z,29.10
2018-12-27T15:32:37.634Z,31.13
2018-12-27T15:35:07.124Z,31.20
2018-12-27T15:37:36.669Z,40.80
2018-12-27T15:40:06.910Z,30.03
2018-12-27T15:42:36.446Z,32.00
2018-12-27T15:45:06.947Z,31.23
2018-12-27T15:47:36.429Z,29.27
2018-12-27T15:50:08.367Z,30.20
2018-12-27T15:52:38.395Z,28.13
2018-12-27T15:55:08.451Z,30.10
2018-12-27T15:57:37.948Z,29.60
2018-12-27T16:00:10.013Z,31.97
2018-12-27T16:02:39.513Z,30.17
2018-12-27T16:05:09.049Z,31.10
2018-12-27T16:07:38.952Z,32.70
2018-12-27T16:10:08.480Z,31.27
2018-12-27T16:12:38.021Z,33.00
2018-12-27T16:15:07.730Z,30.77
2018-12-27T16:17:37.303Z,34.40
2018-12-27T16:20:07.175Z,32.00
2018-12-27T16:22:37.030Z,30.90
2018-12-27T16:25:06.569Z,32.20
2018-12-27T16:27:36.081Z,31.60
2018-12-27T16:30:08.803Z,32.37
2018-12-27T16:32:38.298Z,33.50
2018-12-27T16:35:07.851Z,32.67
2018-12-27T16:37:37.744Z,32.63
2018-12-27T16:40:09.199Z,32.07
2018-12-27T16:42:38.700Z,31.60
2018-12-27T16:45:08.277Z,31.57
2018-12-27T16:47:37.799Z,31.97
2018-12-27T16:50:09.445Z,31.97
2018-12-27T16:52:39.468Z,31.90
2018-12-27T16:55:08.990Z,32.87
2018-12-27T16:57:38.515Z,32.33
2018-12-27T17:00:09.899Z,31.53
2018-12-27T17:02:39.422Z,31.67
2018-12-27T17:05:09.428Z,33.50
2018-12-27T17:07:38.979Z,34.37
2018-12-27T17:10:09.080Z,32.00
2018-12-27T17:12:38.698Z,33.53
2018-12-27T17:15:08.317Z,31.87
2018-12-27T17:17:37.823Z,32.23
2018-12-27T17:20:07.407Z,33.57
2018-12-27T17:22:36.964Z,32.37
2018-12-27T17:25:06.614Z,33.10
2018-12-27T17:27:36.153Z,33.10
2018-12-27T17:30:08.619Z,33.80
2018-12-27T17:32:38.131Z,35.40
2018-12-27T17:35:07.653Z,34.60
2018-12-27T17:37:37.360Z,32.97
2018-12-27T17:40:09.521Z,34.20
2018-12-27T17:42:39.073Z,33.50
2018-12-27T17:45:08.701Z,35.33
2018-12-27T17:47:38.228Z,33.27
2018-12-27T17:50:08.632Z,40.30
2018-12-27T17:52:38.536Z,34.10
2018-12-27T17:55:08.032Z,35.27
2018-12-27T17:57:37.538Z,34.57
2018-12-27T18:00:09.656Z,34.20
2018-12-27T18:02:39.176Z,34.13
2018-12-27T18:05:08.751Z,33.50
2018-12-27T18:07:38.300Z,33.60
2018-12-27T18:10:08.366Z,35.83
2018-12-27T18:12:37.912Z,36.60
2018-12-27T18:15:07.864Z,38.50
2018-12-27T18:17:37.436Z,35.47
2018-12-27T18:20:07.802Z,35.47
2018-12-27T18:22:37.328Z,35.57
2018-12-27T18:25:06.913Z,34.97
2018-12-27T18:27:36.484Z,35.00
2018-12-27T18:30:09.641Z,35.67
2018-12-27T18:32:40.392Z,35.40
2018-12-27T18:35:10.049Z,34.30
2018-12-27T18:37:40.047Z,33.63
2018-12-27T18:40:09.741Z,35.73
2018-12-27T18:42:39.327Z,35.80
2018-12-27T18:45:09.331Z,34.60
2018-12-27T18:47:38.871Z,35.90
2018-12-27T18:50:08.598Z,35.17
2018-12-27T18:52:38.335Z,34.00
2018-12-27T18:55:07.982Z,34.90
2018-12-27T18:57:37.550Z,35.30
2018-12-27T19:00:11.034Z,36.77
2018-12-27T19:02:42.049Z,37.47
2018-12-27T19:05:11.907Z,34.60
2018-12-27T19:07:45.045Z,36.87
2018-12-27T19:10:13.216Z,38.70
2018-12-27T19:13:10.337Z,36.27
2018-12-27T19:15:49.290Z,35.30
2018-12-27T19:18:23.596Z,38.43
2018-12-27T19:20:59.060Z,37.50
2018-12-27T19:23:30.505Z,35.70
2018-12-27T19:26:00.007Z,37.17
2018-12-27T19:28:29.522Z,36.67
2018-12-27T19:30:59.042Z,38.57
2018-12-27T19:33:28.621Z,38.40
2018-12-27T19:35:58.134Z,37.13
2018-12-27T19:38:27.670Z,36.97
2018-12-27T19:40:57.177Z,36.67
2018-12-27T19:43:26.727Z,37.50
2018-12-27T19:45:56.418Z,38.07
2018-12-27T19:48:25.908Z,39.00
2018-12-27T19:50:55.441Z,38.10
2018-12-27T19:53:25.000Z,36.80
2018-12-27T19:55:57.445Z,38.37
2018-12-27T19:58:27.015Z,35.60
2018-12-27T20:00:56.621Z,37.40
2018-12-27T20:03:26.594Z,37.00
2018-12-27T20:05:56.136Z,35.33
2018-12-27T20:08:26.129Z,35.97
2018-12-27T20:10:55.674Z,35.83
2018-12-27T20:13:25.594Z,35.40
2018-12-27T20:15:55.182Z,36.70
2018-12-27T20:18:24.724Z,36.60
2018-12-27T20:20:54.271Z,35.30
2018-12-27T20:23:23.915Z,34.53
2018-12-27T20:25:53.415Z,36.00
2018-12-27T20:28:22.928Z,36.50
2018-12-27T20:30:53.207Z,36.27
2018-12-27T20:33:22.718Z,35.63
2018-12-27T20:35:52.275Z,35.10
2018-12-27T20:38:21.786Z,34.47
2018-12-27T20:40:51.318Z,34.60
2018-12-27T20:43:20.821Z,35.90
2018-12-27T20:45:50.365Z,33.20
2018-12-27T20:48:19.872Z,34.23
2018-12-27T20:50:49.377Z,35.00
2018-12-27T20:53:19.126Z,34.37
2018-12-27T20:55:48.667Z,32.77
2018-12-27T20:58:18.204Z,33.53
2018-12-27T21:00:47.773Z,36.00
2018-12-27T21:03:17.837Z,33.40
2018-12-27T21:05:47.360Z,34.37
2018-12-27T21:08:16.945Z,32.67
2018-12-27T21:10:46.466Z,33.23
2018-12-27T21:13:16.009Z,33.60
2018-12-27T21:15:45.965Z,33.37
2018-12-27T21:18:15.541Z,33.23
2018-12-27T21:20:45.131Z,31.23
2018-12-27T21:23:14.703Z,32.50
2018-12-27T21:25:44.264Z,31.20
2018-12-27T21:28:13.920Z,31.70
2018-12-27T21:30:43.530Z,32.20
2018-12-27T21:33:13.064Z,31.00
2018-12-27T21:35:42.589Z,31.00
2018-12-27T21:38:12.339Z,31.43
2018-12-27T21:40:41.828Z,32.10
2018-12-27T21:43:11.340Z,30.70
2018-12-27T21:45:40.904Z,30.00
2018-12-27T21:48:10.419Z,29.90
2018-12-27T21:50:39.972Z,31.57
2018-12-27T21:53:09.527Z,30.07
2018-12-27T21:55:39.068Z,30.77
2018-12-27T21:58:08.602Z,31.57
2018-12-27T22:00:38.450Z,32.23
2018-12-27T22:03:08.002Z,31.40
2018-12-27T22:05:37.592Z,32.10
2018-12-27T22:08:07.167Z,31.40
2018-12-27T22:10:37.027Z,33.80
2018-12-27T22:13:06.542Z,30.77
2018-12-27T22:15:36.150Z,31.80
2018-12-27T22:18:05.687Z,31.77
2018-12-27T22:20:35.184Z,32.70
2018-12-27T22:23:04.896Z,31.83
2018-12-27T22:25:34.421Z,34.33
2018-12-27T22:28:03.948Z,32.87
2018-12-27T22:30:33.595Z,32.50
2018-12-27T22:33:03.311Z,33.60
2018-12-27T22:35:32.856Z,34.83
2018-12-27T22:38:02.411Z,34.03
2018-12-27T22:40:31.907Z,34.97
2018-12-27T22:43:01.461Z,35.47
2018-12-27T22:45:31.225Z,33.97
2018-12-27T22:48:01.099Z,36.10
2018-12-27T22:50:31.978Z,35.97
2018-12-27T22:53:01.505Z,35.40
2018-12-27T22:55:31.168Z,35.97
2018-12-27T22:58:00.709Z,36.30
2018-12-27T23:00:32.054Z,34.37
2018-12-27T23:03:01.609Z,36.37
2018-12-27T23:05:31.575Z,36.00
2018-12-27T23:08:01.117Z,36.37
2018-12-27T23:10:30.768Z,35.57
2018-12-27T23:13:00.438Z,36.93
2018-12-27T23:15:29.963Z,37.47
2018-12-27T23:17:59.511Z,36.27
2018-12-27T23:20:30.521Z,35.50
2018-12-27T23:23:00.288Z,35.43
2018-12-27T23:25:30.822Z,35.50
2018-12-27T23:28:00.359Z,37.67
2018-12-27T23:30:30.258Z,34.50
2018-12-27T23:32:59.772Z,37.30
2018-12-27T23:35:29.370Z,36.27
2018-12-27T23:37:58.964Z,38.50
2018-12-27T23:40:28.779Z,37.90
2018-12-27T23:42:58.434Z,37.00
2018-12-27T23:45:28.338Z,36.90
2018-12-27T23:48:01.760Z,36.13
2018-12-27T23:50:31.630Z,35.10
2018-12-27T23:53:01.234Z,35.80
2018-12-27T23:55:30.773Z,37.17
2018-12-27T23:58:00.385Z,38.53
